createdAt,value
2018-12-19T00:01:18.979Z,-0.40
2018-12-19T00:03:50.463Z,-0.40
2018-12-19T00:06:22.028Z,-0.50
2018-12-19T00:08:51.524Z,-0.50
2018-12-19T00:11:21.989Z,-0.60
2018-12-19T00:13:51.975Z,-0.60
2018-12-19T00:16:21.462Z,-0.60
2018-12-19T00:18:50.982Z,-0.60
2018-12-19T00:21:20.440Z,-0.60
2018-12-19T00:23:49.951Z,-0.70
2018-12-19T00:26:19.415Z,-0.70
2018-12-19T00:28:50.873Z,-0.70
2018-12-19T00:31:22.295Z,-0.70
2018-12-19T00:33:53.793Z,-0.70
2018-12-19T00:36:23.276Z,-0.70
2018-12-19T00:38:52.783Z,-0.80
2018-12-19T00:41:22.265Z,-0.80
2018-12-19T00:43:51.784Z,-0.80
2018-12-19T00:46:21.278Z,-0.70
2018-12-19T00:48:50.787Z,-0.70
2018-12-19T00:51:20.273Z,-0.70
2018-12-19T00:53:49.791Z,-0.70
2018-12-19T00:56:19.276Z,-0.60
2018-12-19T00:58:48.755Z,-0.60
2018-12-19T01:01:18.247Z,-0.60
2018-12-19T01:03:47.743Z,-0.50
2018-12-19T01:06:17.224Z,-0.50
2018-12-19T01:08:46.707Z,-0.50
2018-12-19T01:11:16.184Z,-0.40
2018-12-19T01:13:45.700Z,-0.30
2018-12-19T01:16:15.175Z,-0.20
2018-12-19T01:18:44.663Z,-0.20
2018-12-19T01:21:14.140Z,-0.20
2018-12-19T01:23:43.644Z,-0.20
2018-12-19T01:26:13.228Z,-0.20
2018-12-19T01:28:42.697Z,-0.20
2018-12-19T01:31:12.189Z,-0.20
2018-12-19T01:33:41.692Z,-0.20
2018-12-19T01:36:11.166Z,-0.20
2018-12-19T01:38:40.676Z,-0.10
2018-12-19T01:41:10.218Z,-0.20
2018-12-19T01:43:39.707Z,-0.20
2018-12-19T01:46:09.188Z,0.00
2018-12-19T01:48:38.687Z,0.00
2018-12-19T01:51:08.161Z,0.10
2018-12-19T01:53:37.667Z,0.40
2018-12-19T01:56:07.141Z,0.50
2018-12-19T01:58:36.639Z,0.40
2018-12-19T02:01:06.101Z,0.30
2018-12-19T02:03:35.591Z,0.30
2018-12-19T02:06:05.071Z,0.30
2018-12-19T02:08:34.679Z,0.60
2018-12-19T02:11:04.231Z,0.60
2018-12-19T02:13:33.744Z,0.60
2018-12-19T02:16:03.220Z,0.70
2018-12-19T02:18:32.716Z,0.80
2018-12-19T02:21:02.188Z,0.80
2018-12-19T02:23:31.898Z,0.90
2018-12-19T02:26:01.375Z,0.90
2018-12-19T02:28:30.866Z,0.80
2018-12-19T02:31:00.363Z,0.80
2018-12-19T02:33:29.858Z,0.70
2018-12-19T02:35:59.383Z,0.70
2018-12-19T02:38:28.858Z,0.70
2018-12-19T02:40:58.334Z,0.70
2018-12-19T02:43:27.795Z,0.80
2018-12-19T02:45:57.311Z,0.80
2018-12-19T02:48:26.763Z,1.00
2018-12-19T02:50:56.244Z,1.20
2018-12-19T02:53:25.725Z,1.30
2018-12-19T02:55:55.224Z,1.20
2018-12-19T02:58:24.677Z,1.00
2018-12-19T03:00:54.157Z,1.00
2018-12-19T03:03:23.651Z,0.90
2018-12-19T03:05:53.140Z,0.80
2018-12-19T03:08:22.609Z,0.80
2018-12-19T03:10:52.099Z,0.70
2018-12-19T03:13:21.556Z,0.70
2018-12-19T03:15:51.039Z,0.70
2018-12-19T03:18:20.506Z,0.70
2018-12-19T03:20:49.992Z,0.70
2018-12-19T03:23:19.459Z,0.70
2018-12-19T03:25:48.940Z,0.70
2018-12-19T03:28:18.412Z,0.80
2018-12-19T03:30:47.882Z,0.80
2018-12-19T03:33:18.509Z,0.80
2018-12-19T03:35:48.009Z,0.80
2018-12-19T03:38:22.960Z,0.80
2018-12-19T03:40:52.462Z,0.80
2018-12-19T03:43:21.927Z,0.80
2018-12-19T03:45:51.547Z,0.80
2018-12-19T03:48:26.424Z,0.80
2018-12-19T03:50:55.913Z,0.70
2018-12-19T03:53:25.375Z,0.90
2018-12-19T03:55:54.872Z,1.30
2018-12-19T03:58:24.333Z,1.60
2018-12-19T04:00:53.821Z,1.80
2018-12-19T04:03:23.282Z,1.90
2018-12-19T04:05:52.762Z,1.80
2018-12-19T04:08:22.237Z,1.90
2018-12-19T04:10:51.728Z,1.90
2018-12-19T04:13:21.177Z,2.00
2018-12-19T04:15:50.662Z,1.90
2018-12-19T04:18:20.129Z,2.00
2018-12-19T04:20:49.656Z,2.00
2018-12-19T04:23:19.128Z,2.10
2018-12-19T04:25:48.615Z,1.90
2018-12-19T04:28:18.080Z,1.90
2018-12-19T04:30:47.559Z,1.90
2018-12-19T04:33:17.004Z,1.90
2018-12-19T04:35:46.711Z,1.90
2018-12-19T04:38:16.597Z,1.80
2018-12-19T04:40:46.084Z,2.00
2018-12-19T04:43:15.591Z,2.00
2018-12-19T04:45:45.279Z,1.90
2018-12-19T04:48:14.739Z,1.80
2018-12-19T04:50:44.259Z,1.70
2018-12-19T04:53:14.601Z,1.60
2018-12-19T04:55:44.321Z,1.60
2018-12-19T04:58:13.887Z,1.50
2018-12-19T05:00:43.400Z,1.60
2018-12-19T05:03:13.072Z,1.50
2018-12-19T05:05:42.554Z,1.50
2018-12-19T05:08:12.006Z,1.50
2018-12-19T05:10:41.483Z,1.60
2018-12-19T05:13:10.960Z,1.70
2018-12-19T05:15:40.455Z,1.60
2018-12-19T05:18:09.924Z,1.60
2018-12-19T05:20:40.502Z,1.60
2018-12-19T05:23:10.105Z,2.10
2018-12-19T05:25:39.588Z,2.20
2018-12-19T05:28:09.064Z,2.10
2018-12-19T05:30:38.567Z,2.20
2018-12-19T05:33:08.035Z,2.20
2018-12-19T05:35:37.548Z,2.40
2018-12-19T05:38:07.015Z,2.40
2018-12-19T05:40:36.527Z,2.10
2018-12-19T05:43:05.991Z,2.10
2018-12-19T05:45:35.486Z,2.20
2018-12-19T05:48:04.943Z,2.40
2018-12-19T05:50:34.531Z,2.50
2018-12-19T05:53:04.001Z,2.50
2018-12-19T05:55:33.480Z,2.50
2018-12-19T05:58:02.940Z,2.40
2018-12-19T06:00:32.418Z,2.50
2018-12-19T06:03:03.893Z,2.40
2018-12-19T06:05:33.392Z,2.40
2018-12-19T06:08:02.860Z,2.30
2018-12-19T06:10:32.352Z,2.50
2018-12-19T06:13:01.815Z,2.50
2018-12-19T06:15:31.291Z,2.50
2018-12-19T06:18:00.759Z,2.60
2018-12-19T06:20:30.303Z,2.60
2018-12-19T06:22:59.776Z,2.70
2018-12-19T06:25:29.248Z,2.80
2018-12-19T06:27:58.811Z,2.70
2018-12-19T06:30:29.122Z,2.50
2018-12-19T06:32:58.579Z,2.40
2018-12-19T06:35:28.081Z,2.40
2018-12-19T06:37:57.543Z,2.40
2018-12-19T06:40:32.504Z,2.50
2018-12-19T06:42:58.504Z,2.40
2018-12-19T06:45:27.984Z,2.30
2018-12-19T06:47:57.443Z,2.20
2018-12-19T06:50:26.928Z,2.20
2018-12-19T06:52:56.395Z,2.10
2018-12-19T06:55:25.877Z,2.10
2018-12-19T06:57:55.372Z,2.00
2018-12-19T07:00:24.820Z,2.00
2018-12-19T07:02:54.317Z,2.00
2018-12-19T07:05:23.801Z,1.90
2018-12-19T07:07:53.291Z,2.00
2018-12-19T07:10:22.888Z,2.00
2018-12-19T07:12:52.451Z,2.00
2018-12-19T07:15:21.916Z,2.10
2018-12-19T07:17:51.404Z,2.00
2018-12-19T07:20:20.856Z,2.10
2018-12-19T07:22:50.326Z,2.20
2018-12-19T07:25:19.794Z,2.30
2018-12-19T07:27:49.285Z,2.30
2018-12-19T07:30:18.754Z,2.20
2018-12-19T07:32:48.240Z,2.10
2018-12-19T07:35:17.745Z,2.10
2018-12-19T07:37:47.244Z,2.00
2018-12-19T07:40:16.721Z,2.00
2018-12-19T07:42:46.229Z,1.90
2018-12-19T07:45:15.719Z,1.90
2018-12-19T07:47:46.264Z,1.90
2018-12-19T07:50:15.751Z,1.90
2018-12-19T07:52:45.561Z,2.00
2018-12-19T07:55:15.048Z,2.00
2018-12-19T07:57:44.562Z,2.00
2018-12-19T08:00:14.029Z,2.00
2018-12-19T08:02:43.516Z,2.00
2018-12-19T08:05:13.005Z,2.10
2018-12-19T08:07:42.559Z,2.30
2018-12-19T08:10:12.047Z,2.50
2018-12-19T08:12:41.539Z,2.60
2018-12-19T08:15:10.995Z,2.60
2018-12-19T08:17:40.486Z,2.80
2018-12-19T08:20:09.959Z,2.90
2018-12-19T08:22:39.454Z,2.80
2018-12-19T08:25:08.908Z,2.90
2018-12-19T08:27:38.406Z,2.90
2018-12-19T10:26:39.292Z,3.20
2018-12-19T10:29:09.084Z,3.30
2018-12-19T10:34:45.189Z,3.80
2018-12-19T10:37:14.727Z,4.30
2018-12-19T10:39:44.319Z,4.30
2018-12-19T10:42:13.811Z,3.80
2018-12-19T10:44:43.288Z,3.40
2018-12-19T10:47:12.824Z,3.20
2018-12-19T10:49:42.292Z,3.10
2018-12-19T10:52:11.795Z,3.10
2018-12-19T10:54:41.279Z,3.30
2018-12-19T10:57:10.784Z,3.60
2018-12-19T10:59:40.465Z,4.10
2018-12-19T11:02:09.947Z,4.40
2018-12-19T11:04:39.423Z,4.60
2018-12-19T11:07:08.920Z,4.60
2018-12-19T11:09:38.403Z,4.70
2018-12-19T11:12:07.906Z,4.60
2018-12-19T11:14:37.380Z,4.60
2018-12-19T11:17:07.180Z,4.50
2018-12-19T11:19:36.656Z,4.50
2018-12-19T11:22:08.151Z,4.50
2018-12-19T11:24:37.609Z,4.60
2018-12-19T11:27:07.196Z,4.60
2018-12-19T11:29:36.676Z,4.60
2018-12-19T11:32:06.172Z,4.30
2018-12-19T11:34:35.675Z,4.10
2018-12-19T11:37:05.154Z,4.20
2018-12-19T11:39:34.616Z,4.30
2018-12-19T11:42:04.109Z,4.30
2018-12-19T11:44:33.591Z,4.40
2018-12-19T11:47:03.189Z,4.30
2018-12-19T11:49:32.676Z,4.40
2018-12-19T11:52:02.144Z,4.20
2018-12-19T11:54:31.631Z,4.00
2018-12-19T11:57:01.137Z,3.90
2018-12-19T11:59:30.629Z,3.90
2018-12-19T12:02:00.080Z,3.90
2018-12-19T12:04:29.566Z,3.90
2018-12-19T12:07:01.334Z,3.90
2018-12-19T12:09:30.839Z,3.90
2018-12-19T12:12:00.316Z,3.90
2018-12-19T12:14:29.816Z,3.90
2018-12-19T12:16:59.283Z,3.90
2018-12-19T12:19:28.771Z,4.00
2018-12-19T12:21:58.232Z,3.90
2018-12-19T12:24:27.743Z,3.90
2018-12-19T12:26:57.216Z,3.90
2018-12-19T12:29:26.698Z,4.00
2018-12-19T12:31:56.172Z,4.00
2018-12-19T12:34:25.674Z,4.10
2018-12-19T12:36:55.161Z,4.20
2018-12-19T12:39:24.635Z,4.30
2018-12-19T12:41:54.078Z,4.40
2018-12-19T12:44:23.561Z,4.50
2018-12-19T12:46:53.032Z,4.50
2018-12-19T12:49:22.505Z,4.60
2018-12-19T12:51:51.972Z,4.70
2018-12-19T12:54:21.451Z,4.80
2018-12-19T12:56:50.908Z,4.90
2018-12-19T12:59:20.384Z,5.40
2018-12-19T13:01:49.853Z,5.20
2018-12-19T13:04:19.343Z,5.10
2018-12-19T13:06:48.815Z,4.90
2018-12-19T13:09:18.290Z,4.90
2018-12-19T13:11:47.756Z,4.90
2018-12-19T13:14:17.447Z,5.00
2018-12-19T13:16:46.919Z,4.90
2018-12-19T13:19:16.396Z,4.90
2018-12-19T13:21:45.973Z,4.90
2018-12-19T13:24:15.493Z,4.90
2018-12-19T13:26:45.004Z,4.90
2018-12-19T13:29:14.504Z,4.80
2018-12-19T13:31:44.068Z,4.80
2018-12-19T13:34:13.568Z,4.80
2018-12-19T13:36:43.027Z,4.90
2018-12-19T13:39:12.511Z,4.90
2018-12-19T13:41:41.983Z,4.80
2018-12-19T13:44:11.456Z,4.80
2018-12-19T13:46:40.913Z,4.90
2018-12-19T13:49:10.404Z,4.90
2018-12-19T13:51:40.915Z,5.00
2018-12-19T13:54:10.399Z,5.20
2018-12-19T13:56:39.934Z,5.40
2018-12-19T13:59:10.107Z,5.50
2018-12-19T14:01:39.578Z,5.40
2018-12-19T14:04:09.052Z,5.20
2018-12-19T14:06:38.516Z,5.10
2018-12-19T14:09:08.114Z,5.00
2018-12-19T14:11:37.643Z,5.00
2018-12-19T14:14:07.128Z,5.00
2018-12-19T14:16:36.680Z,5.10
2018-12-19T14:19:06.155Z,5.10
2018-12-19T14:21:35.612Z,5.20
2018-12-19T14:24:05.219Z,5.20
2018-12-19T14:26:34.992Z,5.20
2018-12-19T14:29:04.479Z,5.20
2018-12-19T14:31:33.940Z,5.20
2018-12-19T14:34:03.437Z,5.20
2018-12-19T14:36:32.892Z,5.20
2018-12-19T14:39:02.373Z,5.20
2018-12-19T14:41:32.890Z,5.20
2018-12-19T14:44:02.377Z,5.20
2018-12-19T14:46:31.844Z,5.10
2018-12-19T14:49:01.327Z,5.10
2018-12-19T14:51:30.888Z,5.10
2018-12-19T14:54:00.363Z,5.00
2018-12-19T14:56:29.836Z,5.00
2018-12-19T14:58:59.368Z,5.00
2018-12-19T15:01:28.829Z,5.10
2018-12-19T15:03:58.296Z,5.10
2018-12-19T15:06:27.761Z,5.00
2018-12-19T15:08:57.351Z,5.00
2018-12-19T15:11:27.087Z,5.00
2018-12-19T15:13:56.609Z,5.00
2018-12-19T15:16:26.180Z,5.00
2018-12-19T15:18:55.757Z,5.00
2018-12-19T15:21:25.220Z,5.00
2018-12-19T15:23:54.700Z,5.00
2018-12-19T15:26:24.277Z,5.00
2018-12-19T15:28:53.776Z,5.00
2018-12-19T15:31:23.263Z,4.90
2018-12-19T15:33:52.755Z,4.90
2018-12-19T15:36:22.432Z,4.90
2018-12-19T15:38:51.899Z,5.00
2018-12-19T15:41:21.360Z,5.00
2018-12-19T15:43:50.830Z,5.00
2018-12-19T15:46:20.300Z,5.10
2018-12-19T15:48:49.787Z,5.10
2018-12-19T15:51:19.251Z,5.20
2018-12-19T15:53:49.266Z,5.20
2018-12-19T15:56:19.043Z,5.10
2018-12-19T15:58:48.528Z,5.10
2018-12-19T16:01:17.991Z,5.20
2018-12-19T16:03:47.482Z,5.30
2018-12-19T16:06:16.977Z,5.40
2018-12-19T16:08:46.470Z,5.40
2018-12-19T16:11:15.923Z,5.60
2018-12-19T16:13:45.515Z,5.70
2018-12-19T16:16:14.974Z,5.70
2018-12-19T16:18:44.441Z,5.60
2018-12-19T16:21:13.926Z,5.50
2018-12-19T16:23:43.388Z,5.50
2018-12-19T16:26:12.869Z,5.40
2018-12-19T16:28:42.337Z,5.30
2018-12-19T16:31:11.800Z,5.30
2018-12-19T16:36:48.909Z,5.20
2018-12-19T16:39:18.392Z,5.30
2018-12-19T16:41:47.892Z,5.40
2018-12-19T16:44:17.429Z,5.40
2018-12-19T16:46:46.916Z,5.40
2018-12-19T16:49:17.376Z,5.40
2018-12-19T16:51:46.853Z,5.30
2018-12-19T16:54:16.326Z,5.40
2018-12-19T16:56:45.778Z,5.40
2018-12-19T16:59:15.257Z,5.40
2018-12-19T17:01:44.739Z,5.40
2018-12-19T17:04:14.197Z,5.30
2018-12-19T17:06:43.823Z,5.20
2018-12-19T17:09:13.352Z,5.20
2018-12-19T17:11:42.896Z,5.10
2018-12-19T17:14:12.432Z,5.10
2018-12-19T17:16:41.891Z,5.10
2018-12-19T17:19:11.451Z,5.10
2018-12-19T17:21:42.008Z,5.10
2018-12-19T17:24:11.662Z,5.10
2018-12-19T17:26:41.133Z,5.10
2018-12-19T17:29:10.608Z,5.10
2018-12-19T17:31:40.105Z,5.10
2018-12-19T17:34:09.575Z,5.10
2018-12-19T17:36:39.052Z,5.10
2018-12-19T17:39:08.503Z,5.10
2018-12-19T17:41:39.932Z,5.10
2018-12-19T17:44:09.392Z,5.10
2018-12-19T17:46:38.875Z,5.20
2018-12-19T17:49:08.344Z,5.20
2018-12-19T17:51:37.840Z,5.40
2018-12-19T17:54:07.316Z,5.30
2018-12-19T17:56:36.923Z,5.30
2018-12-19T17:59:07.360Z,5.20
2018-12-19T18:01:36.988Z,5.20
2018-12-19T18:04:06.763Z,5.20
2018-12-19T18:06:36.356Z,5.20
2018-12-19T18:09:06.972Z,5.20
2018-12-19T18:11:36.481Z,5.10
2018-12-19T18:14:06.152Z,5.10
2018-12-19T18:16:35.649Z,5.10
2018-12-19T18:19:05.107Z,5.20
2018-12-19T18:21:34.592Z,5.10
2018-12-19T18:24:04.209Z,5.10
2018-12-19T18:26:33.686Z,5.10
2018-12-19T18:29:03.160Z,5.10
2018-12-19T18:31:32.640Z,5.20
2018-12-19T18:34:02.147Z,5.20
2018-12-19T18:36:31.622Z,5.20
2018-12-19T18:39:01.172Z,5.30
2018-12-19T18:41:30.652Z,5.30
2018-12-19T18:44:00.124Z,5.20
2018-12-19T18:46:29.622Z,5.30
2018-12-19T18:48:59.084Z,5.30
2018-12-19T18:51:28.560Z,5.20
2018-12-19T18:53:58.031Z,5.30
2018-12-19T18:56:27.519Z,5.40
2018-12-19T18:58:57.042Z,5.40
2018-12-19T19:01:26.714Z,5.40
2018-12-19T19:03:56.282Z,5.50
2018-12-19T19:06:25.932Z,5.50
2018-12-19T19:08:55.432Z,5.40
2018-12-19T19:11:25.036Z,5.50
2018-12-19T19:13:54.623Z,5.70
2018-12-19T19:16:24.388Z,5.90
2018-12-19T19:18:53.863Z,5.90
2018-12-19T19:21:23.347Z,5.80
2018-12-19T19:23:52.924Z,5.70
2018-12-19T19:26:22.532Z,5.70
2018-12-19T19:28:52.091Z,5.50
2018-12-19T19:31:21.584Z,5.50
2018-12-19T19:33:51.229Z,5.60
2018-12-19T19:36:20.937Z,6.00
2018-12-19T19:38:58.116Z,5.90
2018-12-19T20:39:49.743Z,7.00
2018-12-19T20:55:32.575Z,7.00
